Greenbrier, Arkansas
Current Conditions -  °F | °C
As of 7:33 AM on Thursday 18 Dec 2014 (Local Time) from KLRF Reporting Station
Haze Haze  
Wind Chill: 33°   Ceiling: 400
Heat Index: 37°   Visibility: 5mi
Dew Point: 37°   Wind: 6mph
Humidity: 100%   Direction: 40°NE
Pressure: 30.23"   Gusts: NA
Location:  35.23°N, 92.39°W
Report Text: KLRF 181333Z AUTO 04005KT 5SM BR BKN004 BKN009 OVC016 03/03 A3023 RMK AO2
Loading
Personal Weather Stations






























Interactive Weather Map New forecast layout! Learn more

10-Day Weather Forecast

Advertisements
Track Severe Weather on mobile